Terminal Aerodrome Forecast
Issued by NWS Cleveland, OH

Home | Current Version | Previous Version | Text Only | Print | Product List | Glossary Off
Versions: 1 2 3 4 5 6 7 8 9 10 11 12 13 14 15 16 17 18 19 20 21 22 23 24

000
FTUS41 KCLE 201740
TAFYNG
TAF
KYNG 201740Z 2018/2118 16008KT 3SM BR OVC006
      TEMPO 2018/2022 1SM BR OVC003
     FM202200 20006KT 5SM BR OVC008
     FM210200 20005KT 4SM BR OVC012
      TEMPO 2110/2114 2SM BR OVC006
     FM211500 20008KT 6SM BR OVC020=

USA.gov is the U.S. government's official web portal to all federal, state and local government web resources and services.